Pagrindinis puslapis
METAR-TAF:

METAR-TAF

Oro uostai :

Ruby, Aliaska, Jungtinės Amerikos Valstijos

platuma: 64-43-38N, ilguma: 155-28-12W, Aukštis: 201 m

Dabartinis oras

Ataskaita buvo paskelbta 56 minutes, ne 20:56 UTC
Vėjas 7 kt iš Vakarų, svyruoja nuo Pietvakarių ir Vakarų/Šiaurės Vakarų
Temperatūra 4°C
Drėgmė 65%
Slėgis 1000 hPa
Matomumas: 16.1 km
Mažai debesys ne aukštis 2300 ft

METAR: PARY 212056Z AUTO 26007KT 230V300 10SM FEW023 04/M02 A2954 RMK AO2 SLP014 T00391017 53010

Laikas: 13:52 (21:52 UTC)


TAF: trūkstamas

Orai ataskaitas ir orų prognozės (METAR, TAF).

turimą stotys yra geltonos ir raudonos taškus žemėlapyje.

Perkelti pele per norėdami pamatyti stoties vardą.

Tada spustelėkite, norėdami matyti oro stebėjimo ir prognozės.

Norėdami pakeisti žemėlapį: spustelėkite ant žalios mygtukų su juodo kryžiaus žemyn,; žalią mygtuką su brūkšneliu, jei norite nutolinti; arba žalių rodyklių gretimoms žemėlapius.


METAR-TAF: